Hub


Voltar

 INFORMAÇÕES METEOROLÓGICAS

METAR FOR SBOI


ADDS - METARS form results

(0318 UTC 20 April 2019)
Data provider http://aviationweather.gov/metar/data/
 
Forecast for: SBOI (OIAPOQUE , BR)
Text: TAF SBOI 192200Z 2000/2012 08005KT 9999 SCT010 TX27/2000Z TN20/2006Z
Forecast period: 0000 to 1200 UTC 20 April 2019
Forecast type: FROM: standard forecast or significant change
Winds: from the E (80 degrees) at 6 MPH (5 knots; 2.6 m/s)
Visibility: 6 or more miles 10+ km)
Ceiling: at least 12,000 feet AGL
Clouds: scattered clouds at 1000 feet AGL
Weather: no significant weather forecast for this period
Text: PROB30 2008/2011 BKN008 RMK PEU
Forecast period: 0800 to 1100 UTC 20 April 2019
Forecast type: PROBABLE: 30 percent likelihood of the following during this time
Visibility: missing
Ceiling: 800 feet AGL
Clouds: broken clouds at 800 feet AGL
Weather: no significant weather forecast for this period


 MAPA DO AEROPORTO


 INFORMAÇÕES DA PISTA

Pista 3 Tamanho da pista 3937 ft Largura da pista 98 ft
Elevação da pista 0 ft Ranhura da pista 0 ft Proa da pista 0
Pista 21 Tamanho da pista 3937 ft Largura da pista 98 ft
Elevação da pista 0 ft Ranhura da pista 0 ft Proa da pista 0

 FREQUÊNCIAS DO AEROPORTO

Tipo AFIS Nome RDO Frequência 125.9 MHZ

 AUXÍLIOS DE NAVEGAÇÃO PRÓXIMOS AO AEROPORTO

Tipo NDB Nome Oiapoque Frequência 340 KHZ